Time;durP1;ratioP1;P1;durP2;ratioP2;P2;SDS_P1;SDS_P2;PMS_P1;PMS_P2;Temp;Humidity;BMP_temperature;BMP_pressure;BME280_temperature;BME280_humidity;BME280_pressure;Samples;Min_cycle;Max_cycle;Signal;HPM_P1;HPM_P2
2023/01/12 00:01:26;;;;;;;0.00;0.00;;;8.80;99.90;;;;;;5021194;28;20026;-71
2023/01/12 00:03:52;;;;;;;0.00;0.00;;;8.80;99.90;;;;;;5035081;28;20032;-71
2023/01/12 00:06:19;;;;;;;0.00;0.00;;;8.70;99.90;;;;;;5023738;28;20097;-71
2023/01/12 00:08:45;;;;;;;;;;;8.70;99.90;;;;;;5015492;28;20645;-70
2023/01/12 00:11:12;;;;;;;0.00;0.00;;;8.80;99.90;;;;;;5023476;28;19913;-71
2023/01/12 00:13:37;;;;;;;0.00;0.00;;;8.80;99.90;;;;;;5021980;28;20017;-71
2023/01/12 00:18:49;;;;;;;0.00;0.00;;;8.80;99.90;;;;;;5022724;28;20040;-71
2023/01/12 00:21:16;;;;;;;0.00;0.00;;;8.70;99.90;;;;;;5022299;28;20575;-71
2023/01/12 00:23:42;;;;;;;0.00;0.00;;;8.80;99.90;;;;;;5021045;28;20029;-71
2023/01/12 00:26:08;;;;;;;0.00;0.00;;;8.80;99.90;;;;;;5019875;28;20021;-71
2023/01/12 00:28:35;;;;;;;0.00;0.00;;;8.80;99.90;;;;;;5022736;28;20047;-71
2023/01/12 00:31:02;;;;;;;0.05;0.05;;;8.80;99.90;;;;;;5022005;28;20439;-71
2023/01/12 00:33:28;;;;;;;0.00;0.00;;;8.80;99.90;;;;;;5027745;28;20029;-71
2023/01/12 00:35:54;;;;;;;0.00;0.00;;;8.90;99.90;;;;;;5020165;28;21098;-71
2023/01/12 00:38:19;;;;;;;0.00;0.00;;;8.90;99.90;;;;;;5021120;28;20799;-71
2023/01/12 00:40:45;;;;;;;0.00;0.00;;;8.90;99.90;;;;;;5019203;28;20489;-71
2023/01/12 00:45:55;;;;;;;0.00;0.00;;;8.90;99.90;;;;;;5023369;28;20075;-71
2023/01/12 00:48:21;;;;;;;0.00;0.00;;;8.90;99.90;;;;;;5020971;28;20466;-71
2023/01/12 00:50:47;;;;;;;;;;;8.90;99.90;;;;;;5017152;28;20026;-71
2023/01/12 00:53:13;;;;;;;0.00;0.00;;;8.90;99.90;;;;;;5024324;28;19912;-71
2023/01/12 00:55:38;;;;;;;0.00;0.00;;;8.90;99.90;;;;;;5018244;28;20082;-71
2023/01/12 00:58:04;;;;;;;0.00;0.00;;;8.90;99.90;;;;;;5024605;28;20044;-71
2023/01/12 01:00:30;;;;;;;0.00;0.00;;;9.00;99.90;;;;;;5012195;28;20971;-72
2023/01/12 01:02:56;;;;;;;0.00;0.00;;;8.90;99.90;;;;;;5025776;28;20476;-71
2023/01/12 01:05:23;;;;;;;0.00;0.00;;;8.90;99.90;;;;;;5017275;28;20065;-71
2023/01/12 01:07:48;;;;;;;;;;;8.90;99.90;;;;;;5016371;28;21346;-71
2023/01/12 01:10:15;;;;;;;0.00;0.00;;;8.90;99.90;;;;;;5020863;28;19913;-71
2023/01/12 01:12:41;;;;;;;;;;;8.90;99.90;;;;;;5019152;28;20055;-71
2023/01/12 01:15:07;;;;;;;0.00;0.00;;;8.90;99.90;;;;;;5044320;28;19908;-71
2023/01/12 01:17:33;;;;;;;0.00;0.00;;;8.90;99.90;;;;;;5021467;28;20029;-71
2023/01/12 01:19:58;;;;;;;0.00;0.00;;;8.90;99.90;;;;;;5021064;28;20022;-71
2023/01/12 01:22:24;;;;;;;0.27;0.27;;;8.90;99.90;;;;;;5024181;28;20024;-71
2023/01/12 01:24:50;;;;;;;0.00;0.00;;;8.80;99.90;;;;;;5020718;28;20393;-71
2023/01/12 01:27:16;;;;;;;0.00;0.00;;;8.90;99.90;;;;;;5019963;28;21552;-71
2023/01/12 01:29:41;;;;;;;0.00;0.00;;;8.90;99.90;;;;;;5022032;28;20039;-71
2023/01/12 01:32:07;;;;;;;0.00;0.00;;;9.00;99.90;;;;;;5023626;28;20025;-71
2023/01/12 01:34:33;;;;;;;0.00;0.00;;;8.90;99.90;;;;;;5024112;28;20032;-72
2023/01/12 01:36:59;;;;;;;0.00;0.00;;;8.90;99.90;;;;;;5020242;28;20025;-71
2023/01/12 01:39:25;;;;;;;0.00;0.00;;;8.90;99.90;;;;;;5045806;28;20028;-71
2023/01/12 01:41:51;;;;;;;0.00;0.00;;;8.80;99.90;;;;;;5020434;28;20021;-71
2023/01/12 01:44:28;;;;;;;0.00;0.00;;;8.80;99.90;;;;;;5015450;28;21543;-71
2023/01/12 01:46:59;;;;;;;0.10;0.10;;;8.70;99.90;;;;;;5040534;28;20037;-71
2023/01/12 01:49:36;;;;;;;0.00;0.00;;;8.70;99.90;;;;;;5036798;28;20037;-70
2023/01/12 01:52:04;;;;;;;;;;;8.80;99.90;;;;;;5016740;28;20071;-72
2023/01/12 01:54:36;;;;;;;0.00;0.00;;;8.70;99.90;;;;;;5018384;28;20981;-71
2023/01/12 01:57:02;;;;;;;1.13;0.25;;;8.70;99.90;;;;;;5019366;28;20087;-71
2023/01/12 01:59:33;;;;;;;0.00;0.00;;;8.60;99.90;;;;;;5022834;28;20386;-71
2023/01/12 02:02:00;;;;;;;0.00;0.00;;;8.60;99.90;;;;;;5023476;28;20022;-72
2023/01/12 02:04:26;;;;;;;0.00;0.00;;;8.60;99.90;;;;;;5022638;28;20482;-72
2023/01/12 02:06:55;;;;;;;0.00;0.00;;;8.60;99.90;;;;;;5018926;28;20048;-71
2023/01/12 02:09:25;;;;;;;0.00;0.00;;;8.60;99.90;;;;;;5016311;28;20029;-71
2023/01/12 02:17:27;;;;;;;0.00;0.00;;;8.60;99.90;;;;;;5024633;28;20029;-71
2023/01/12 02:20:12;;;;;;;0.00;0.00;;;8.60;99.90;;;;;;5027273;28;20033;-71
2023/01/12 02:22:54;;;;;;;0.00;0.00;;;8.60;99.90;;;;;;5021091;28;20032;-71
2023/01/12 02:25:34;;;;;;;1.08;0.35;;;8.60;99.90;;;;;;5024619;28;20055;-71
2023/01/12 02:28:22;;;;;;;0.00;0.00;;;8.50;99.90;;;;;;5040881;28;20124;-70
2023/01/12 02:31:22;;;;;;;0.00;0.00;;;8.60;99.90;;;;;;5020931;28;20025;-71
2023/01/12 02:33:51;;;;;;;0.00;0.00;;;8.60;99.90;;;;;;5024076;28;20030;-71
2023/01/12 02:36:49;;;;;;;0.00;0.00;;;8.50;99.90;;;;;;5020530;28;20037;-70
2023/01/12 02:39:27;;;;;;;0.00;0.00;;;8.50;99.90;;;;;;5027278;28;21016;-71
2023/01/12 02:45:17;;;;;;;0.00;0.00;;;8.50;99.90;;;;;;5020867;28;20041;-71
2023/01/12 02:47:46;;;;;;;0.00;0.00;;;8.50;99.90;;;;;;5026219;28;20029;-71
2023/01/12 02:50:20;;;;;;;0.00;0.00;;;8.50;99.90;;;;;;5026578;28;20017;-71
2023/01/12 02:52:55;;;;;;;0.00;0.00;;;8.50;99.90;;;;;;5027695;28;20032;-71
2023/01/12 02:55:22;;;;;;;0.00;0.00;;;8.40;99.90;;;;;;5019945;28;20020;-71
2023/01/12 02:57:49;;;;;;;0.00;0.00;;;8.40;99.90;;;;;;5029628;28;20116;-72
2023/01/12 03:00:16;;;;;;;0.00;0.00;;;8.40;99.90;;;;;;5024348;28;20029;-71
2023/01/12 03:02:42;;;;;;;0.00;0.00;;;8.40;99.90;;;;;;5022606;28;20112;-71
2023/01/12 03:05:08;;;;;;;0.00;0.00;;;8.30;99.90;;;;;;5023684;28;20030;-71
2023/01/12 03:07:48;;;;;;;0.00;0.00;;;8.40;99.90;;;;;;5022027;28;20459;-71
2023/01/12 03:10:28;;;;;;;0.00;0.00;;;8.40;99.90;;;;;;5026087;28;20072;-72
2023/01/12 03:12:56;;;;;;;0.00;0.00;;;8.30;99.90;;;;;;5025939;28;20047;-71
2023/01/12 03:15:23;;;;;;;0.00;0.00;;;8.30;99.90;;;;;;5019585;28;20449;-71
2023/01/12 03:18:02;;;;;;;0.00;0.00;;;8.30;99.90;;;;;;5021607;28;20021;-71
2023/01/12 03:20:36;;;;;;;0.00;0.00;;;8.30;99.90;;;;;;5021054;28;20013;-71
2023/01/12 03:23:19;;;;;;;0.00;0.00;;;8.30;99.90;;;;;;5045879;28;20455;-71
2023/01/12 03:25:45;;;;;;;0.00;0.00;;;8.30;99.90;;;;;;5019223;28;20378;-71
2023/01/12 03:28:15;;;;;;;0.00;0.00;;;8.30;99.90;;;;;;5021800;28;20037;-71
2023/01/12 03:30:45;;;;;;;0.00;0.00;;;8.40;99.90;;;;;;5016851;28;20112;-71
2023/01/12 03:33:12;;;;;;;0.00;0.00;;;8.30;99.90;;;;;;5019071;28;20217;-71
2023/01/12 03:35:46;;;;;;;0.00;0.00;;;8.30;99.90;;;;;;5021321;28;20079;-71
2023/01/12 03:38:23;;;;;;;0.00;0.00;;;8.30;99.90;;;;;;5022757;28;20718;-72
2023/01/12 03:40:55;;;;;;;0.00;0.00;;;8.40;99.90;;;;;;5022929;28;20096;-71
2023/01/12 03:43:29;;;;;;;0.00;0.00;;;8.30;99.90;;;;;;5016234;28;20032;-71
2023/01/12 03:46:10;;;;;;;0.00;0.00;;;8.40;99.90;;;;;;5019601;28;20045;-71
2023/01/12 03:48:50;;;;;;;0.00;0.00;;;8.40;99.90;;;;;;5019719;28;20100;-72
2023/01/12 03:51:26;;;;;;;0.08;0.08;;;8.40;99.90;;;;;;5015488;28;20025;-71
2023/01/12 03:53:53;;;;;;;0.00;0.00;;;8.40;99.90;;;;;;5022756;28;20036;-71
2023/01/12 03:56:21;;;;;;;0.00;0.00;;;8.40;99.90;;;;;;5018733;28;20033;-71
2023/01/12 03:58:48;;;;;;;0.00;0.00;;;8.40;99.90;;;;;;5018469;28;20026;-71
2023/01/12 04:01:14;;;;;;;0.00;0.00;;;8.40;99.90;;;;;;5023333;28;20028;-71
2023/01/12 04:03:40;;;;;;;0.00;0.00;;;8.30;99.90;;;;;;5021773;28;20110;-72
2023/01/12 04:06:07;;;;;;;0.00;0.00;;;8.30;99.90;;;;;;5020511;28;20459;-71
2023/01/12 04:08:33;;;;;;;0.00;0.00;;;8.30;99.90;;;;;;5018762;28;20014;-71
2023/01/12 04:10:59;;;;;;;0.00;0.00;;;8.20;99.90;;;;;;5026204;28;20018;-71
2023/01/12 04:13:25;;;;;;;0.00;0.00;;;8.20;99.90;;;;;;5012897;28;20490;-71
2023/01/12 04:15:50;;;;;;;0.00;0.00;;;8.20;99.90;;;;;;5019377;28;20026;-71
2023/01/12 04:18:16;;;;;;;0.00;0.00;;;8.10;99.90;;;;;;5025924;28;20024;-71
2023/01/12 04:20:46;;;;;;;0.00;0.00;;;8.10;99.90;;;;;;5019722;28;20713;-71
2023/01/12 04:23:11;;;;;;;0.00;0.00;;;8.10;99.90;;;;;;5017846;28;20029;-71
2023/01/12 04:25:38;;;;;;;0.00;0.00;;;8.10;99.90;;;;;;5017258;28;20598;-71
2023/01/12 04:28:04;;;;;;;;;;;8.10;99.90;;;;;;5027109;28;20013;-71
2023/01/12 04:30:31;;;;;;;0.00;0.00;;;8.10;99.90;;;;;;5045028;28;20523;-72
2023/01/12 04:32:58;;;;;;;0.00;0.00;;;8.10;99.90;;;;;;5022860;28;20029;-71
2023/01/12 04:35:25;;;;;;;0.00;0.00;;;8.10;99.90;;;;;;5014842;28;20667;-71
2023/01/12 04:37:52;;;;;;;0.00;0.00;;;8.10;99.90;;;;;;5020524;28;20395;-72
2023/01/12 04:40:18;;;;;;;0.00;0.00;;;8.00;99.90;;;;;;5021456;28;20044;-71
2023/01/12 04:43:02;;;;;;;0.00;0.00;;;8.00;99.90;;;;;;5021459;28;20068;-71
2023/01/12 04:45:30;;;;;;;0.05;0.03;;;8.00;99.90;;;;;;5025091;28;20037;-71
2023/01/12 04:48:10;;;;;;;0.00;0.00;;;8.00;99.90;;;;;;5022317;28;20466;-72
2023/01/12 04:50:39;;;;;;;0.00;0.00;;;8.00;99.90;;;;;;5023240;28;20529;-71
2023/01/12 04:53:06;;;;;;;0.00;0.00;;;8.00;99.90;;;;;;5018080;28;20479;-71
2023/01/12 04:55:35;;;;;;;0.00;0.00;;;8.00;99.90;;;;;;5021219;28;20033;-71
2023/01/12 04:58:01;;;;;;;0.00;0.00;;;7.90;99.90;;;;;;5021368;28;20103;-71
2023/01/12 05:00:27;;;;;;;0.00;0.00;;;7.80;99.90;;;;;;5020679;28;20477;-71
2023/01/12 05:02:58;;;;;;;0.00;0.00;;;7.90;99.90;;;;;;5020189;28;20181;-71
2023/01/12 05:05:24;;;;;;;0.00;0.00;;;7.80;99.90;;;;;;5021628;28;20444;-71
2023/01/12 05:10:34;;;;;;;0.00;0.00;;;7.70;99.90;;;;;;5022220;28;20039;-71
2023/01/12 05:13:00;;;;;;;0.00;0.00;;;7.70;99.90;;;;;;5017674;28;20033;-71
2023/01/12 05:15:26;;;;;;;0.00;0.00;;;7.70;99.90;;;;;;5024832;28;20032;-71
2023/01/12 05:17:53;;;;;;;0.00;0.00;;;7.70;99.90;;;;;;5024322;28;20129;-72
2023/01/12 05:20:20;;;;;;;0.00;0.00;;;7.70;99.90;;;;;;5024113;28;20025;-71
2023/01/12 05:22:47;;;;;;;0.00;0.00;;;7.70;99.90;;;;;;5018417;28;20588;-71
2023/01/12 05:25:13;;;;;;;0.00;0.00;;;7.70;99.90;;;;;;5021796;28;20117;-71
2023/01/12 05:27:40;;;;;;;0.00;0.00;;;7.60;99.90;;;;;;5016269;28;20678;-70
2023/01/12 05:30:06;;;;;;;;;;;7.70;99.90;;;;;;5021213;28;20044;-71
2023/01/12 05:32:40;;;;;;;0.00;0.00;;;7.70;99.90;;;;;;5023480;28;20338;-70
2023/01/12 05:35:06;;;;;;;0.00;0.00;;;7.60;99.90;;;;;;5023749;28;20493;-71
2023/01/12 05:37:32;;;;;;;;;;;7.50;99.90;;;;;;5018803;28;20040;-71
2023/01/12 05:39:58;;;;;;;0.00;0.00;;;7.50;99.90;;;;;;5022314;28;20417;-71
2023/01/12 05:45:09;;;;;;;0.00;0.00;;;7.40;99.90;;;;;;5022968;28;20051;-71
2023/01/12 05:47:35;;;;;;;0.00;0.00;;;7.40;99.90;;;;;;5024940;28;20124;-70
2023/01/12 05:50:03;;;;;;;0.00;0.00;;;7.30;99.90;;;;;;5023029;28;20104;-71
2023/01/12 05:52:30;;;;;;;0.00;0.00;;;7.30;99.90;;;;;;5017300;28;20456;-71
2023/01/12 05:54:58;;;;;;;;;;;7.30;99.90;;;;;;5026860;28;20056;-71
2023/01/12 05:57:23;;;;;;;0.00;0.00;;;7.30;99.90;;;;;;5010442;28;20351;-71
2023/01/12 05:59:49;;;;;;;0.00;0.00;;;7.30;99.90;;;;;;5021940;28;20080;-71
2023/01/12 06:02:16;;;;;;;0.00;0.00;;;7.30;99.90;;;;;;5021938;28;20033;-71
2023/01/12 06:04:43;;;;;;;0.00;0.00;;;7.30;99.90;;;;;;5013791;28;20029;-70
2023/01/12 06:07:10;;;;;;;;;;;7.20;99.90;;;;;;5020445;28;20107;-71
2023/01/12 06:09:36;;;;;;;0.00;0.00;;;7.20;99.90;;;;;;5017690;28;20529;-71
2023/01/12 06:14:45;;;;;;;0.00;0.00;;;7.10;99.90;;;;;;5019647;28;20587;-70
2023/01/12 06:17:11;;;;;;;0.00;0.00;;;7.10;99.90;;;;;;5017571;28;20033;-70
2023/01/12 06:19:37;;;;;;;0.00;0.00;;;7.20;99.90;;;;;;5021392;28;20492;-71
2023/01/12 06:22:06;;;;;;;0.00;0.00;;;7.20;99.90;;;;;;5013101;28;20033;-75
2023/01/12 06:24:32;;;;;;;0.00;0.00;;;7.20;99.90;;;;;;5020178;28;20300;-71
2023/01/12 06:26:58;;;;;;;0.00;0.00;;;7.20;99.90;;;;;;5027352;28;20016;-71
2023/01/12 06:29:23;;;;;;;0.00;0.00;;;7.20;99.90;;;;;;5019027;28;20018;-70
2023/01/12 06:31:49;;;;;;;0.00;0.00;;;7.10;99.90;;;;;;5024728;28;20032;-71
2023/01/12 06:34:15;;;;;;;0.00;0.00;;;7.10;99.90;;;;;;5024680;28;20049;-71
2023/01/12 06:36:40;;;;;;;0.00;0.00;;;7.00;99.90;;;;;;5018705;28;20034;-71
2023/01/12 06:39:06;;;;;;;0.00;0.00;;;6.80;99.90;;;;;;5022584;28;20030;-71
2023/01/12 06:44:19;;;;;;;0.00;0.00;;;6.70;99.90;;;;;;5018708;28;20613;-70
2023/01/12 06:46:45;;;;;;;;;;;6.50;99.90;;;;;;5018562;28;20116;-71
2023/01/12 06:49:11;;;;;;;0.00;0.00;;;6.40;99.90;;;;;;5021377;28;20405;-71
2023/01/12 06:51:37;;;;;;;0.00;0.00;;;6.30;99.90;;;;;;5017892;28;20104;-71
2023/01/12 06:54:02;;;;;;;0.00;0.00;;;6.30;99.90;;;;;;5018649;28;20116;-71
2023/01/12 06:56:28;;;;;;;0.00;0.00;;;6.20;99.90;;;;;;5028982;28;20402;-71
2023/01/12 06:58:54;;;;;;;0.00;0.00;;;6.30;99.90;;;;;;5016359;28;20152;-71
2023/01/12 07:01:19;;;;;;;0.00;0.00;;;6.30;99.90;;;;;;5025056;28;20569;-71
2023/01/12 07:03:45;;;;;;;0.00;0.00;;;6.30;99.90;;;;;;5024404;28;20806;-71
2023/01/12 07:06:11;;;;;;;0.00;0.00;;;6.30;99.90;;;;;;5028944;28;20528;-70
2023/01/12 07:08:37;;;;;;;0.00;0.00;;;6.30;99.90;;;;;;5024834;28;20027;-71
2023/01/12 07:11:06;;;;;;;0.00;0.00;;;6.40;99.90;;;;;;5020209;28;20026;-71
2023/01/12 07:13:33;;;;;;;0.00;0.00;;;6.40;99.90;;;;;;5026210;28;20036;-70
2023/01/12 07:16:00;;;;;;;0.00;0.00;;;6.50;99.90;;;;;;5021780;28;20020;-71
2023/01/12 07:18:27;;;;;;;0.00;0.00;;;6.60;99.90;;;;;;5023298;28;20105;-70
2023/01/12 07:20:53;;;;;;;0.00;0.00;;;6.70;99.90;;;;;;5021201;28;21446;-71
2023/01/12 07:23:19;;;;;;;0.00;0.00;;;6.70;99.90;;;;;;5021192;28;20104;-71
2023/01/12 07:25:44;;;;;;;0.00;0.00;;;6.70;99.90;;;;;;5023458;28;20045;-70
2023/01/12 07:28:10;;;;;;;0.00;0.00;;;6.70;99.90;;;;;;5027290;28;20029;-70
2023/01/12 07:30:36;;;;;;;0.00;0.00;;;6.80;99.90;;;;;;5019639;28;20160;-70
2023/01/12 07:33:11;;;;;;;0.00;0.00;;;6.90;99.90;;;;;;5019969;28;20030;-70
2023/01/12 07:35:40;;;;;;;0.00;0.00;;;7.00;99.90;;;;;;5013789;28;20025;-70
2023/01/12 07:38:06;;;;;;;0.00;0.00;;;7.10;99.90;;;;;;5017350;28;20033;-70
2023/01/12 07:40:32;;;;;;;0.00;0.00;;;7.90;99.90;;;;;;5022872;28;20028;-72
2023/01/12 07:43:01;;;;;;;0.00;0.00;;;9.50;99.90;;;;;;5023156;28;20040;-71
2023/01/12 07:45:27;;;;;;;0.00;0.00;;;10.70;99.90;;;;;;5021559;28;20036;-71
2023/01/12 07:47:55;;;;;;;0.00;0.00;;;11.40;99.90;;;;;;5027437;28;20040;-71
2023/01/12 07:50:22;;;;;;;0.00;0.00;;;11.70;99.90;;;;;;5022638;28;20021;-71
2023/01/12 07:52:48;;;;;;;0.00;0.00;;;11.60;99.90;;;;;;5021539;28;20097;-71
2023/01/12 07:55:15;;;;;;;0.00;0.00;;;11.60;99.90;;;;;;5020292;28;20025;-71
2023/01/12 07:57:42;;;;;;;0.00;0.00;;;11.70;99.90;;;;;;5028753;28;20037;-71
2023/01/12 08:00:08;;;;;;;0.00;0.00;;;11.60;99.90;;;;;;5026447;28;20107;-71
2023/01/12 08:02:35;;;;;;;0.00;0.00;;;11.40;99.90;;;;;;5017774;28;20104;-71
2023/01/12 08:05:00;;;;;;;0.00;0.00;;;11.30;99.90;;;;;;5018536;28;20027;-71
2023/01/12 08:07:30;;;;;;;0.00;0.00;;;11.30;99.90;;;;;;5050828;28;20442;-71
2023/01/12 08:09:56;;;;;;;0.00;0.00;;;11.30;99.90;;;;;;5019670;28;20259;-71
2023/01/12 08:12:21;;;;;;;0.00;0.00;;;11.40;99.90;;;;;;5023239;28;20088;-71
2023/01/12 08:14:47;;;;;;;0.00;0.00;;;11.20;99.90;;;;;;5016483;28;20026;-71
2023/01/12 08:17:17;;;;;;;0.00;0.00;;;11.20;99.90;;;;;;5025174;28;20096;-71
2023/01/12 08:20:07;;;;;;;0.00;0.00;;;11.40;99.90;;;;;;5026412;28;20087;-71
2023/01/12 08:22:38;;;;;;;0.00;0.00;;;11.50;99.90;;;;;;5023070;28;20410;-71
2023/01/12 08:25:15;;;;;;;0.00;0.00;;;12.50;99.90;;;;;;5018393;28;20423;-72
2023/01/12 08:27:44;;;;;;;0.00;0.00;;;14.00;99.90;;;;;;5019654;28;20075;-71
2023/01/12 08:30:18;;;;;;;0.00;0.00;;;15.70;95.30;;;;;;5024724;28;20021;-72
2023/01/12 08:32:44;;;;;;;0.00;0.00;;;17.00;90.80;;;;;;5022408;28;20086;-72
2023/01/12 08:35:13;;;;;;;0.00;0.00;;;17.50;84.20;;;;;;5023049;28;20860;-72
2023/01/12 08:37:38;;;;;;;0.00;0.00;;;18.80;78.60;;;;;;5016424;28;20030;-71
2023/01/12 08:40:05;;;;;;;0.00;0.00;;;19.60;71.10;;;;;;5021052;28;20032;-72
2023/01/12 08:42:31;;;;;;;0.00;0.00;;;20.20;67.60;;;;;;5028916;28;20030;-72
2023/01/12 08:44:57;;;;;;;0.00;0.00;;;21.20;65.30;;;;;;5018457;28;20499;-72
2023/01/12 08:47:26;;;;;;;0.00;0.00;;;22.00;61.00;;;;;;5020126;28;20032;-72
2023/01/12 08:49:53;;;;;;;0.00;0.00;;;22.60;58.20;;;;;;5020651;28;20074;-71
2023/01/12 08:52:19;;;;;;;0.00;0.00;;;23.60;56.00;;;;;;5020487;28;20032;-72
2023/01/12 08:54:45;;;;;;;0.00;0.00;;;23.90;54.00;;;;;;5019606;28;20051;-72
2023/01/12 08:57:11;;;;;;;0.00;0.00;;;23.80;53.50;;;;;;5015781;28;20029;-72
2023/01/12 08:59:37;;;;;;;0.00;0.00;;;24.50;52.40;;;;;;5019722;28;20095;-73
2023/01/12 09:02:04;;;;;;;0.00;0.00;;;25.00;51.00;;;;;;5015520;28;20109;-72
2023/01/12 09:04:29;;;;;;;0.00;0.00;;;25.30;49.80;;;;;;5024212;28;20083;-72
2023/01/12 09:06:55;;;;;;;0.00;0.00;;;25.80;49.10;;;;;;5014372;28;20034;-72
2023/01/12 09:09:23;;;;;;;0.00;0.00;;;26.30;48.40;;;;;;5023519;28;20075;-72
2023/01/12 09:11:49;;;;;;;0.65;0.65;;;26.20;47.50;;;;;;5027889;28;20025;-73
2023/01/12 09:14:18;;;;;;;0.00;0.00;;;26.40;48.30;;;;;;5019689;28;20017;-74
2023/01/12 09:16:48;;;;;;;0.00;0.00;;;26.10;48.20;;;;;;5025590;28;20259;-74
2023/01/12 09:19:15;;;;;;;0.00;0.00;;;26.70;47.80;;;;;;5015609;28;20123;-72
2023/01/12 09:21:42;;;;;;;0.00;0.00;;;27.10;47.20;;;;;;5024129;28;20032;-72
2023/01/12 09:24:09;;;;;;;0.00;0.00;;;27.00;46.40;;;;;;5014218;28;20048;-75
2023/01/12 09:26:44;;;;;;;0.00;0.00;;;26.90;46.30;;;;;;5024438;28;20028;-76
2023/01/12 09:29:11;;;;;;;0.00;0.00;;;27.80;46.00;;;;;;5023302;28;20106;-77
2023/01/12 09:31:39;;;;;;;0.00;0.00;;;27.90;44.90;;;;;;5026141;28;20022;-76
2023/01/12 09:34:05;;;;;;;0.00;0.00;;;28.80;44.60;;;;;;5024443;28;20052;-75
2023/01/12 09:36:44;;;;;;;0.00;0.00;;;28.90;44.00;;;;;;5027360;28;20059;-75
2023/01/12 09:39:15;;;;;;;0.00;0.00;;;28.00;44.10;;;;;;5036564;28;20044;-75
2023/01/12 09:47:52;;;;;;;0.00;0.00;;;28.50;42.30;;;;;;5028927;28;20028;-75
2023/01/12 09:50:27;;;;;;;0.00;0.00;;;29.00;42.10;;;;;;5033272;28;20017;-75
2023/01/12 09:53:07;;;;;;;0.00;0.00;;;28.50;42.50;;;;;;5039924;28;21470;-74
2023/01/12 09:56:01;;;;;;;0.00;0.00;;;28.70;42.00;;;;;;5020010;28;20030;-75
2023/01/12 09:58:46;;;;;;;0.00;0.00;;;28.30;41.90;;;;;;5019480;28;20332;-74
2023/01/12 10:01:16;;;;;;;0.00;0.00;;;28.00;42.00;;;;;;5022180;28;20025;-74
2023/01/12 10:03:43;;;;;;;0.00;0.00;;;27.90;41.90;;;;;;5021993;28;20033;-74
2023/01/12 10:06:15;;;;;;;0.00;0.00;;;28.00;42.20;;;;;;5018712;28;20926;-74
2023/01/12 10:08:45;;;;;;;0.30;0.15;;;28.10;41.50;;;;;;5019172;28;20148;-75
2023/01/12 10:11:50;;;;;;;0.00;0.00;;;28.60;41.40;;;;;;5019614;28;20025;-75
2023/01/12 10:14:23;;;;;;;0.00;0.00;;;28.50;41.40;;;;;;5020268;28;20029;-75
2023/01/12 10:16:57;;;;;;;0.00;0.00;;;28.10;40.70;;;;;;5020888;28;20028;-75
2023/01/12 10:19:31;;;;;;;0.00;0.00;;;27.40;41.40;;;;;;5017114;28;21046;-75
2023/01/12 10:22:10;;;;;;;0.00;0.00;;;27.70;41.80;;;;;;5021450;28;20022;-75
2023/01/12 10:24:39;;;;;;;0.00;0.00;;;28.00;40.70;;;;;;5017824;28;20028;-75
2023/01/12 10:27:12;;;;;;;0.00;0.00;;;27.60;41.50;;;;;;5019595;28;20045;-75
2023/01/12 10:29:39;;;;;;;0.00;0.00;;;26.60;41.50;;;;;;5023174;28;20026;-75
2023/01/12 10:32:10;;;;;;;0.00;0.00;;;26.10;42.70;;;;;;5031946;28;20025;-75
2023/01/12 10:34:51;;;;;;;0.00;0.00;;;26.90;42.20;;;;;;5030095;28;20435;-75
2023/01/12 10:37:18;;;;;;;0.00;0.00;;;27.60;41.70;;;;;;5024696;28;20110;-76
2023/01/12 10:39:51;;;;;;;0.00;0.00;;;28.50;41.30;;;;;;5027275;28;20040;-75
2023/01/12 10:45:12;;;;;;;0.00;0.00;;;27.80;40.70;;;;;;5018819;28;20041;-75
2023/01/12 10:47:52;;;;;;;0.20;0.20;;;28.40;40.50;;;;;;5023495;28;20021;-75
2023/01/12 10:50:27;;;;;;;0.00;0.00;;;28.80;40.70;;;;;;5030449;28;20703;-72
2023/01/12 10:53:00;;;;;;;0.00;0.00;;;28.90;40.20;;;;;;5038671;28;20539;-72
2023/01/12 10:55:33;;;;;;;0.00;0.00;;;27.90;40.20;;;;;;5025748;28;20048;-72
2023/01/12 10:58:00;;;;;;;0.00;0.00;;;26.50;41.50;;;;;;5026186;28;20404;-73
2023/01/12 11:00:27;;;;;;;0.00;0.00;;;26.20;41.40;;;;;;5024080;28;20095;-72
2023/01/12 11:02:53;;;;;;;0.00;0.00;;;26.00;41.80;;;;;;5024361;28;20347;-72
2023/01/12 11:05:36;;;;;;;0.00;0.00;;;24.10;42.30;;;;;;5022534;28;20013;-76
2023/01/12 11:08:26;;;;;;;0.00;0.00;;;23.30;44.20;;;;;;5036650;28;20071;-76
2023/01/12 11:11:13;;;;;;;0.00;0.00;;;20.70;46.30;;;;;;5038990;28;20100;-77
2023/01/12 11:13:38;;;;;;;0.00;0.00;;;18.90;49.70;;;;;;5044633;28;20051;-76
2023/01/12 11:16:29;;;;;;;0.00;0.00;;;17.60;51.40;;;;;;5022419;28;20770;-77
2023/01/12 11:19:20;;;;;;;0.00;0.00;;;16.80;53.20;;;;;;5029277;28;20852;-76
2023/01/12 11:22:26;;;;;;;0.00;0.00;;;16.10;54.50;;;;;;5024292;28;20090;-76
2023/01/12 11:25:09;;;;;;;0.00;0.00;;;15.80;55.80;;;;;;5028751;28;20069;-77
2023/01/12 11:27:46;;;;;;;0.00;0.00;;;15.60;56.50;;;;;;5029651;28;20493;-77
2023/01/12 11:30:29;;;;;;;0.00;0.00;;;15.70;56.20;;;;;;5028101;28;20037;-77
2023/01/12 11:33:07;;;;;;;0.00;0.00;;;15.70;56.50;;;;;;5042910;28;20067;-76
2023/01/12 11:35:57;;;;;;;0.00;0.00;;;15.50;56.60;;;;;;5021245;28;20471;-77
2023/01/12 11:38:35;;;;;;;0.00;0.00;;;15.50;56.40;;;;;;5034791;28;20048;-76
2023/01/12 11:41:08;;;;;;;0.00;0.00;;;15.70;57.20;;;;;;5022555;28;20026;-76
2023/01/12 11:43:57;;;;;;;0.00;0.00;;;15.60;56.90;;;;;;5038117;28;20048;-77
2023/01/12 11:46:45;;;;;;;0.00;0.00;;;15.80;56.70;;;;;;5028123;28;20110;-76
2023/01/12 11:50:08;;;;;;;0.00;0.00;;;15.80;56.50;;;;;;5038227;28;20140;-77
2023/01/12 11:52:34;;;;;;;0.00;0.00;;;15.90;58.10;;;;;;5023314;28;20120;-77
2023/01/12 11:55:02;;;;;;;0.00;0.00;;;16.10;56.70;;;;;;5020130;28;20540;-77
2023/01/12 11:57:40;;;;;;;0.00;0.00;;;16.10;56.50;;;;;;5023190;28;20124;-78
2023/01/12 12:00:24;;;;;;;0.00;0.00;;;15.90;57.10;;;;;;5027326;28;20025;-77
2023/01/12 12:03:17;;;;;;;0.00;0.00;;;15.90;56.70;;;;;;5007674;28;20021;-76
2023/01/12 12:06:15;;;;;;;0.00;0.00;;;15.80;56.00;;;;;;5031503;28;20029;-77
2023/01/12 12:09:05;;;;;;;0.00;0.00;;;15.80;56.20;;;;;;5021309;28;21396;-77
2023/01/12 12:11:40;;;;;;;0.00;0.00;;;15.50;56.90;;;;;;5030102;28;20096;-77
2023/01/12 12:14:27;;;;;;;0.00;0.00;;;15.40;57.40;;;;;;5026079;28;20022;-76
2023/01/12 12:17:13;;;;;;;0.08;0.08;;;15.30;57.60;;;;;;5036294;28;20025;-76
2023/01/12 12:20:21;;;;;;;0.00;0.00;;;14.90;57.80;;;;;;5024009;28;21140;-76
2023/01/12 12:22:56;;;;;;;0.00;0.00;;;14.70;58.10;;;;;;5026300;28;20136;-76
2023/01/12 12:25:25;;;;;;;0.00;0.00;;;14.90;59.40;;;;;;5038845;28;20845;-76
2023/01/12 12:28:17;;;;;;;0.00;0.00;;;14.90;59.00;;;;;;5042926;28;20027;-76
2023/01/12 12:30:49;;;;;;;0.00;0.00;;;14.80;59.10;;;;;;5014698;28;20035;-76
2023/01/12 12:33:45;;;;;;;0.00;0.00;;;14.50;59.10;;;;;;5021625;28;20578;-78
2023/01/12 12:36:27;;;;;;;0.00;0.00;;;14.50;59.40;;;;;;5020132;28;20028;-76
2023/01/12 12:39:04;;;;;;;0.00;0.00;;;14.50;60.00;;;;;;5029986;28;20086;-77
2023/01/12 12:45:16;;;;;;;0.00;0.00;;;14.60;60.30;;;;;;5030214;28;20028;-76
2023/01/12 12:48:06;;;;;;;0.00;0.00;;;14.50;59.90;;;;;;5025139;28;20029;-76
2023/01/12 12:50:44;;;;;;;0.00;0.00;;;14.40;60.10;;;;;;5045357;28;20040;-77
2023/01/12 12:53:32;;;;;;;0.00;0.00;;;14.50;60.60;;;;;;5033441;28;20547;-77
2023/01/12 12:56:07;;;;;;;0.00;0.00;;;14.40;60.30;;;;;;5021442;28;20021;-76
2023/01/12 12:58:43;;;;;;;0.00;0.00;;;14.40;60.50;;;;;;5024188;28;20102;-76
2023/01/12 13:01:18;;;;;;;0.00;0.00;;;14.20;60.40;;;;;;5051818;28;20021;-76
2023/01/12 13:03:59;;;;;;;0.00;0.00;;;14.00;61.00;;;;;;5033799;28;20159;-76
2023/01/12 13:06:46;;;;;;;0.00;0.00;;;13.90;61.60;;;;;;5027324;28;20155;-75
2023/01/12 13:09:15;;;;;;;0.00;0.00;;;13.60;61.40;;;;;;5016178;28;20029;-75
2023/01/12 13:12:28;;;;;;;0.00;0.00;;;13.50;62.10;;;;;;5027157;28;20025;-75
2023/01/12 13:15:16;;;;;;;0.00;0.00;;;13.20;63.60;;;;;;5021996;28;20332;-75
2023/01/12 13:17:45;;;;;;;0.00;0.00;;;13.00;64.00;;;;;;5023735;28;20143;-75
2023/01/12 13:20:12;;;;;;;0.00;0.00;;;12.90;64.30;;;;;;5021080;28;20029;-75
2023/01/12 13:22:45;;;;;;;0.00;0.00;;;12.90;65.30;;;;;;5025180;28;20025;-75
2023/01/12 13:25:26;;;;;;;0.00;0.00;;;12.80;65.80;;;;;;5023270;28;20022;-75
2023/01/12 13:27:59;;;;;;;0.00;0.00;;;12.80;65.50;;;;;;5026979;28;20144;-75
2023/01/12 13:30:33;;;;;;;0.00;0.00;;;12.70;66.20;;;;;;5031076;28;20021;-74
2023/01/12 13:32:58;;;;;;;0.00;0.00;;;12.70;65.50;;;;;;5019392;28;20017;-74
2023/01/12 13:35:48;;;;;;;0.00;0.00;;;12.60;66.20;;;;;;5023788;28;20155;-74
2023/01/12 13:38:30;;;;;;;0.00;0.00;;;12.50;66.60;;;;;;5028015;28;20094;-74
2023/01/12 13:44:20;;;;;;;0.00;0.00;;;12.40;68.70;;;;;;5022550;28;20040;-72
2023/01/12 13:46:58;;;;;;;0.00;0.00;;;12.30;67.40;;;;;;5025549;28;20021;-72
2023/01/12 13:49:30;;;;;;;0.00;0.00;;;12.20;67.80;;;;;;5037954;28;20032;-72
2023/01/12 13:52:18;;;;;;;0.00;0.00;;;12.20;68.40;;;;;;5017859;28;20299;-72
2023/01/12 13:54:50;;;;;;;0.00;0.00;;;12.20;67.90;;;;;;5017722;28;20057;-72
2023/01/12 13:57:28;;;;;;;0.00;0.00;;;12.20;68.00;;;;;;5020996;28;20096;-71
2023/01/12 14:00:08;;;;;;;0.00;0.00;;;12.10;68.60;;;;;;5014984;28;20025;-72